Time;durP1;ratioP1;P1;durP2;ratioP2;P2;SDS_P1;SDS_P2;PMS_P1;PMS_P2;Temp;Humidity;BMP_temperature;BMP_pressure;BME280_temperature;BME280_humidity;BME280_pressure;Samples;Min_cycle;Max_cycle;Signal;HPM_P1;HPM_P2
2021/12/20 00:01:46;;;;;;;29.33;4.45;;;6.40;99.90;;;;;;5006054;28;20981;-70
2021/12/20 00:04:12;;;;;;;32.03;4.80;;;6.30;99.90;;;;;;4977530;28;141564;-71
2021/12/20 00:06:38;;;;;;;36.67;4.75;;;6.30;99.90;;;;;;5005272;28;20050;-70
2021/12/20 00:09:05;;;;;;;34.83;5.15;;;6.30;99.90;;;;;;4978490;28;271713;-70
2021/12/20 00:11:32;;;;;;;32.17;5.22;;;6.30;99.90;;;;;;5057034;28;20048;-70
2021/12/20 00:13:58;;;;;;;35.47;4.55;;;6.30;99.90;;;;;;5025742;28;260162;-71
2021/12/20 00:16:24;;;;;;;38.63;4.55;;;6.30;99.90;;;;;;5046115;28;20447;-70
2021/12/20 00:18:51;;;;;;;45.95;5.20;;;6.30;99.90;;;;;;5018480;28;253539;-70
2021/12/20 00:21:17;;;;;;;35.40;4.82;;;6.30;99.90;;;;;;5031316;28;20425;-71
2021/12/20 00:23:46;;;;;;;37.58;4.50;;;6.30;99.90;;;;;;5062202;28;20278;-71
2021/12/20 00:26:19;;;;;;;33.50;4.40;;;6.30;99.90;;;;;;5013606;28;228302;-70
2021/12/20 00:28:45;;;;;;;34.03;4.53;;;6.30;99.90;;;;;;5062420;28;20087;-71
2021/12/20 00:31:11;;;;;;;43.33;5.15;;;6.30;99.90;;;;;;5013121;28;165438;-70
2021/12/20 00:33:37;;;;;;;31.80;4.75;;;6.30;99.90;;;;;;5060226;28;20060;-70
2021/12/20 00:36:06;;;;;;;40.72;5.10;;;6.30;99.90;;;;;;5042781;28;259472;-70
2021/12/20 00:41:18;;;;;;;33.97;4.72;;;6.30;99.90;;;;;;5030076;28;20072;-70
2021/12/20 00:43:45;;;;;;;35.33;4.43;;;6.30;99.90;;;;;;5042479;28;20048;-70
2021/12/20 00:46:11;;;;;;;31.98;4.70;;;6.30;99.90;;;;;;5023106;28;251165;-71
2021/12/20 00:48:37;;;;;;;40.42;4.95;;;6.30;99.90;;;;;;5041349;28;20112;-71
2021/12/20 00:51:03;;;;;;;31.63;3.78;;;6.30;99.90;;;;;;5023131;28;256792;-71
2021/12/20 00:53:30;;;;;;;27.60;4.25;;;6.30;99.90;;;;;;5046136;28;20041;-70
2021/12/20 00:55:56;;;;;;;31.75;4.30;;;6.30;99.90;;;;;;4997638;28;20060;-72
2021/12/20 00:58:22;;;;;;;31.10;4.15;;;6.30;99.90;;;;;;5028201;28;20045;-71
2021/12/20 01:00:51;;;;;;;39.17;5.20;;;6.30;99.90;;;;;;5020348;28;255616;-71
2021/12/20 01:03:19;;;;;;;35.00;4.75;;;6.20;99.90;;;;;;5024661;28;20056;-71
2021/12/20 01:05:46;;;;;;;35.97;4.30;;;6.20;99.90;;;;;;5004579;28;269685;-72
2021/12/20 01:08:13;;;;;;;24.58;3.90;;;6.20;99.90;;;;;;5026137;28;20053;-71
2021/12/20 01:10:49;;;;;;;32.38;4.05;;;6.20;99.90;;;;;;5020995;28;258614;-71
2021/12/20 01:13:20;;;;;;;30.85;4.03;;;6.10;99.90;;;;;;5023252;28;20115;-71
2021/12/20 01:15:50;;;;;;;35.50;4.35;;;6.10;99.90;;;;;;5005720;28;193159;-71
2021/12/20 01:18:17;;;;;;;36.13;4.00;;;6.10;99.90;;;;;;5023841;28;20544;-71
2021/12/20 01:20:44;;;;;;;26.73;3.67;;;6.10;99.90;;;;;;5023017;28;265729;-72
2021/12/20 01:23:11;;;;;;;35.95;4.20;;;6.10;99.90;;;;;;5038872;28;20065;-71
2021/12/20 01:25:39;;;;;;;29.63;4.80;;;6.10;99.90;;;;;;5008092;28;251187;-71
2021/12/20 01:28:12;;;;;;;29.38;3.78;;;6.10;99.90;;;;;;5046895;28;20041;-72
2021/12/20 01:30:40;;;;;;;28.58;3.53;;;6.10;99.90;;;;;;5006368;28;25006;-71
2021/12/20 01:33:09;;;;;;;31.80;3.70;;;6.10;99.90;;;;;;5006072;28;20044;-71
2021/12/20 01:35:36;;;;;;;27.15;3.45;;;6.10;99.90;;;;;;5011783;28;57770;-72
2021/12/20 01:38:03;;;;;;;28.35;3.53;;;6.10;99.90;;;;;;5039858;28;20148;-71
2021/12/20 01:40:30;;;;;;;25.92;3.45;;;6.10;99.90;;;;;;5019347;28;254632;-72
2021/12/20 01:42:57;;;;;;;31.45;3.50;;;6.10;99.90;;;;;;5042963;28;20433;-71
2021/12/20 01:45:27;;;;;;;25.30;3.58;;;6.00;99.90;;;;;;5013676;28;20744;-71
2021/12/20 01:48:10;;;;;;;30.17;3.88;;;6.00;99.90;;;;;;5038231;28;20053;-71
2021/12/20 01:53:17;;;;;;;25.70;3.40;;;6.00;99.90;;;;;;5062225;28;20044;-71
2021/12/20 01:55:43;;;;;;;27.33;3.63;;;6.00;99.90;;;;;;5018847;28;20545;-71
2021/12/20 01:58:10;;;;;;;32.55;3.40;;;6.00;99.90;;;;;;5041483;28;20059;-71
2021/12/20 02:00:37;;;;;;;25.50;3.17;;;5.90;99.90;;;;;;5032998;28;252842;-71
2021/12/20 02:03:03;;;;;;;26.02;3.13;;;5.90;99.90;;;;;;5041274;28;20052;-71
2021/12/20 02:05:55;;;;;;;25.38;3.28;;;5.90;99.90;;;;;;5012899;28;267394;-71
2021/12/20 02:08:26;;;;;;;22.48;3.15;;;5.80;99.90;;;;;;5024615;28;20057;-71
2021/12/20 02:10:56;;;;;;;22.73;3.15;;;5.70;99.90;;;;;;5027173;28;175050;-72
2021/12/20 02:13:25;;;;;;;24.80;3.47;;;5.70;99.90;;;;;;5026884;28;20059;-71
2021/12/20 02:15:51;;;;;;;26.10;3.10;;;5.60;99.90;;;;;;5015743;28;47402;-71
2021/12/20 02:18:18;;;;;;;24.52;3.28;;;5.50;99.90;;;;;;5021531;28;20410;-71
2021/12/20 02:20:44;;;;;;;25.25;3.30;;;5.50;99.90;;;;;;5026367;28;140951;-71
2021/12/20 02:23:10;;;;;;;20.95;3.42;;;5.50;99.90;;;;;;5039234;28;20063;-71
2021/12/20 02:25:36;;;;;;;25.60;2.83;;;5.50;99.90;;;;;;4999679;28;270199;-71
2021/12/20 02:28:12;;;;;;;24.92;2.58;;;5.50;99.90;;;;;;5034061;28;20041;-71
2021/12/20 02:38:36;;;;;;;14.52;1.85;;;5.70;99.90;;;;;;5060037;28;20040;-71
2021/12/20 02:41:11;;;;;;;20.90;2.30;;;5.70;99.90;;;;;;4992911;28;109582;-71
2021/12/20 02:43:41;;;;;;;15.02;1.73;;;5.80;99.90;;;;;;4987153;28;20054;-71
2021/12/20 02:49:03;;;;;;;15.40;2.05;;;5.90;99.90;;;;;;4966267;28;222568;-71
2021/12/20 02:51:30;;;;;;;20.20;2.30;;;5.80;99.90;;;;;;5016227;28;20058;-71
2021/12/20 02:53:58;;;;;;;22.35;2.13;;;5.80;99.90;;;;;;4986135;28;136346;-71
2021/12/20 02:56:25;;;;;;;19.38;1.88;;;5.80;99.90;;;;;;4998866;28;20667;-71
2021/12/20 02:58:52;;;;;;;16.45;2.03;;;5.80;99.90;;;;;;4973018;28;183735;-70
2021/12/20 03:01:31;;;;;;;16.10;2.05;;;5.80;99.90;;;;;;4998929;28;20060;-71
2021/12/20 03:04:00;;;;;;;23.23;2.30;;;5.70;99.90;;;;;;4950228;28;248780;-71
2021/12/20 03:06:35;;;;;;;21.90;2.50;;;5.70;99.90;;;;;;4993802;28;20054;-71
2021/12/20 03:09:01;;;;;;;17.15;2.05;;;5.70;99.90;;;;;;4988446;28;31786;-71
2021/12/20 03:11:28;;;;;;;14.00;2.08;;;5.70;99.90;;;;;;4993183;28;20057;-71
2021/12/20 03:14:06;;;;;;;22.88;2.40;;;5.70;99.90;;;;;;5008865;28;270811;-71
2021/12/20 03:16:34;;;;;;;16.80;1.77;;;5.70;99.90;;;;;;5024867;28;20706;-71
2021/12/20 03:19:04;;;;;;;16.97;1.97;;;5.70;99.90;;;;;;5006978;28;275666;-71
2021/12/20 03:21:31;;;;;;;19.65;2.30;;;5.70;99.90;;;;;;5029444;28;20060;-71
2021/12/20 03:23:57;;;;;;;17.48;2.10;;;5.60;99.90;;;;;;5010879;28;258898;-71
2021/12/20 03:26:23;;;;;;;18.77;2.05;;;5.60;99.90;;;;;;5028616;28;20128;-71
2021/12/20 03:28:51;;;;;;;19.02;2.58;;;5.60;99.90;;;;;;5029905;28;20072;-71
2021/12/20 03:31:18;;;;;;;19.30;2.10;;;5.60;99.90;;;;;;4991975;28;255315;-71
2021/12/20 03:33:44;;;;;;;19.63;2.60;;;5.50;99.90;;;;;;5028889;28;20045;-71
2021/12/20 03:36:11;;;;;;;19.20;2.28;;;5.50;99.90;;;;;;5047281;22;275767;-68
2021/12/20 03:38:37;;;;;;;20.70;2.83;;;5.50;99.90;;;;;;5026671;28;20057;-67
2021/12/20 03:41:03;;;;;;;21.38;2.75;;;5.50;99.90;;;;;;5025523;28;254288;-67
2021/12/20 03:43:33;;;;;;;23.52;3.42;;;5.40;99.90;;;;;;5042192;28;20052;-68
2021/12/20 03:46:00;;;;;;;19.95;2.53;;;5.40;99.90;;;;;;5032457;28;261857;-68
2021/12/20 03:48:27;;;;;;;20.23;2.45;;;5.40;99.90;;;;;;5040628;28;20057;-68
2021/12/20 03:50:55;;;;;;;14.60;2.47;;;5.40;99.90;;;;;;5036704;28;255935;-67
2021/12/20 03:53:21;;;;;;;17.50;2.47;;;5.30;99.90;;;;;;5043749;28;20148;-67
2021/12/20 03:55:47;;;;;;;22.05;2.22;;;5.30;99.90;;;;;;5031781;28;28891;-66
2021/12/20 03:58:13;;;;;;;18.13;2.72;;;5.30;99.90;;;;;;5042755;28;20041;-67
2021/12/20 04:00:40;;;;;;;20.33;2.53;;;5.30;99.90;;;;;;5021936;28;273982;-67
2021/12/20 04:03:11;;;;;;;19.02;2.13;;;5.20;99.90;;;;;;5039656;28;20425;-67
2021/12/20 04:05:38;;;;;;;17.67;2.20;;;5.20;99.90;;;;;;5002632;28;179590;-67
2021/12/20 04:08:05;;;;;;;16.50;1.92;;;5.20;99.90;;;;;;5045241;28;20044;-67
2021/12/20 04:10:32;;;;;;;22.85;2.55;;;5.10;99.90;;;;;;5033545;28;263929;-67
2021/12/20 04:12:58;;;;;;;18.45;2.55;;;5.10;99.90;;;;;;5042806;28;20044;-67
2021/12/20 04:15:24;;;;;;;22.80;2.42;;;5.10;99.90;;;;;;5033123;28;253273;-68
2021/12/20 04:17:50;;;;;;;17.55;2.42;;;5.10;99.90;;;;;;5046719;28;20512;-68
2021/12/20 04:20:16;;;;;;;24.05;2.50;;;5.00;99.90;;;;;;5032333;28;38024;-66
2021/12/20 04:22:42;;;;;;;13.57;2.05;;;5.00;99.90;;;;;;5039526;28;20069;-67
2021/12/20 04:25:09;;;;;;;19.05;2.28;;;4.90;99.90;;;;;;5021811;28;262244;-66
2021/12/20 04:27:36;;;;;;;18.77;2.50;;;4.90;99.90;;;;;;5032275;28;20064;-68
2021/12/20 04:30:11;;;;;;;19.42;2.30;;;4.80;99.90;;;;;;5030837;28;273050;-68
2021/12/20 04:32:39;;;;;;;15.27;2.63;;;4.80;99.90;;;;;;5029806;28;20080;-67
2021/12/20 04:35:07;;;;;;;22.10;2.42;;;4.70;99.90;;;;;;5030645;28;179082;-68
2021/12/20 04:37:33;;;;;;;17.30;2.72;;;4.70;99.90;;;;;;5041709;28;20045;-68
2021/12/20 04:40:00;;;;;;;17.02;2.17;;;4.70;99.90;;;;;;5031193;28;261746;-66
2021/12/20 04:42:26;;;;;;;16.45;2.22;;;4.60;99.90;;;;;;5047610;28;20124;-67
2021/12/20 04:44:52;;;;;;;14.75;1.92;;;4.60;99.90;;;;;;5031290;28;263663;-68
2021/12/20 04:47:18;;;;;;;19.85;2.40;;;4.50;99.90;;;;;;5037273;28;20509;-68
2021/12/20 04:49:45;;;;;;;13.30;2.03;;;4.50;99.90;;;;;;5023478;28;254717;-68
2021/12/20 04:52:11;;;;;;;17.85;2.25;;;4.40;99.90;;;;;;5037262;28;20045;-67
2021/12/20 04:54:37;;;;;;;28.42;2.47;;;4.40;99.90;;;;;;5027900;28;272887;-67
2021/12/20 04:57:13;;;;;;;20.58;2.00;;;4.30;99.90;;;;;;5038411;28;20064;-67
2021/12/20 04:59:42;;;;;;;18.83;2.38;;;4.30;99.90;;;;;;5030892;28;101569;-67
2021/12/20 05:02:08;;;;;;;17.55;2.10;;;4.20;99.90;;;;;;5052569;28;20053;-68
2021/12/20 05:04:34;;;;;;;13.13;2.20;;;4.20;99.90;;;;;;5008784;28;262478;-67
2021/12/20 05:07:02;;;;;;;15.40;1.95;;;4.20;99.90;;;;;;5040573;28;20048;-69
2021/12/20 05:09:35;;;;;;;15.23;2.28;;;4.10;99.90;;;;;;5024043;28;147705;-67
2021/12/20 05:12:11;;;;;;;23.30;2.50;;;4.10;99.90;;;;;;5029605;28;20049;-68
2021/12/20 05:14:40;;;;;;;17.00;2.00;;;3.90;99.90;;;;;;5023107;28;231980;-67
2021/12/20 05:17:07;;;;;;;15.43;1.77;;;3.90;99.90;;;;;;5037976;28;20603;-67
2021/12/20 05:19:34;;;;;;;19.80;2.22;;;3.80;99.90;;;;;;5029317;28;52302;-68
2021/12/20 05:22:00;;;;;;;17.27;2.08;;;3.70;99.90;;;;;;5041063;28;20053;-68
2021/12/20 05:24:26;;;;;;;17.30;2.67;;;3.60;99.90;;;;;;5026310;28;269776;-68
2021/12/20 05:26:52;;;;;;;26.92;2.50;;;3.60;99.90;;;;;;5048719;28;20060;-67
2021/12/20 05:29:18;;;;;;;16.85;1.85;;;3.50;99.90;;;;;;5024150;28;266460;-68
2021/12/20 05:31:44;;;;;;;15.90;1.98;;;3.40;99.90;;;;;;5050254;28;20060;-66
2021/12/20 05:34:11;;;;;;;19.33;2.63;;;3.40;99.90;;;;;;5023838;28;274218;-68
2021/12/20 05:36:37;;;;;;;27.92;5.85;;;3.30;99.90;;;;;;5020410;28;20057;-67
2021/12/20 05:39:04;;;;;;;19.45;3.47;;;3.20;99.90;;;;;;5026052;28;265249;-71
2021/12/20 05:41:30;;;;;;;21.42;3.67;;;3.10;99.90;;;;;;5053739;28;20455;-67
2021/12/20 05:43:56;;;;;;;23.92;3.33;;;3.10;99.90;;;;;;5019616;28;266647;-68
2021/12/20 05:46:22;;;;;;;16.70;2.80;;;3.10;99.90;;;;;;5037506;28;20048;-68
2021/12/20 05:48:48;;;;;;;21.23;2.63;;;3.00;99.90;;;;;;5038117;28;20079;-67
2021/12/20 05:51:15;;;;;;;21.65;2.85;;;2.90;99.90;;;;;;5022593;28;250172;-69
2021/12/20 05:53:41;;;;;;;20.58;3.10;;;2.90;99.90;;;;;;5034795;28;20060;-66
2021/12/20 05:56:07;;;;;;;23.85;2.88;;;2.80;99.90;;;;;;5038436;28;258657;-67
2021/12/20 05:58:33;;;;;;;19.33;2.80;;;2.80;99.90;;;;;;5036348;28;20053;-68
2021/12/20 06:01:00;;;;;;;19.55;2.80;;;2.70;99.90;;;;;;5031342;28;70227;-68
2021/12/20 06:03:26;;;;;;;21.52;2.92;;;2.70;99.90;;;;;;5038530;28;20048;-68
2021/12/20 06:05:53;;;;;;;18.73;2.90;;;2.70;99.90;;;;;;5005017;28;252976;-68
2021/12/20 06:08:19;;;;;;;17.95;2.67;;;2.60;99.90;;;;;;5039642;28;20041;-68
2021/12/20 06:10:45;;;;;;;12.27;2.67;;;2.60;99.90;;;;;;5039005;28;265092;-68
2021/12/20 06:13:11;;;;;;;17.88;2.53;;;2.50;99.90;;;;;;5040738;28;20053;-67
2021/12/20 06:15:37;;;;;;;20.75;2.63;;;2.50;99.90;;;;;;5034144;28;265923;-67
2021/12/20 06:18:03;;;;;;;18.05;2.65;;;2.40;99.90;;;;;;5038960;28;20056;-67
2021/12/20 06:20:30;;;;;;;16.95;2.40;;;2.40;99.90;;;;;;5031246;28;259299;-67
2021/12/20 06:22:56;;;;;;;17.42;2.28;;;2.30;99.90;;;;;;5040654;28;20064;-68
2021/12/20 06:25:22;;;;;;;19.80;2.00;;;2.20;99.90;;;;;;5031202;28;263272;-68
2021/12/20 06:27:48;;;;;;;16.88;2.80;;;2.20;99.90;;;;;;5037873;28;20506;-68
2021/12/20 06:30:15;;;;;;;20.05;2.80;;;2.20;99.90;;;;;;5041821;28;88022;-68
2021/12/20 06:32:43;;;;;;;17.23;2.70;;;2.10;99.90;;;;;;5039141;28;20063;-68
2021/12/20 06:35:10;;;;;;;21.05;2.83;;;2.10;99.90;;;;;;5027006;28;193029;-68
2021/12/20 06:37:37;;;;;;;17.40;2.47;;;2.00;99.90;;;;;;5042760;28;20049;-68
2021/12/20 06:40:05;;;;;;;21.55;3.35;;;2.10;99.90;;;;;;5009321;28;206925;-68
2021/12/20 06:42:31;;;;;;;21.92;2.60;;;2.00;99.90;;;;;;5035007;28;20056;-68
2021/12/20 06:44:57;;;;;;;18.83;2.47;;;2.00;99.90;;;;;;5020326;28;155137;-68
2021/12/20 06:47:24;;;;;;;18.83;3.42;;;2.00;99.90;;;;;;5039865;28;20041;-69
2021/12/20 06:49:50;;;;;;;22.75;2.88;;;1.90;99.90;;;;;;5034860;28;38581;-68
2021/12/20 06:52:16;;;;;;;21.60;2.83;;;2.00;99.90;;;;;;5051183;28;20059;-68
2021/12/20 06:54:42;;;;;;;18.50;2.90;;;1.90;99.90;;;;;;5035345;28;259323;-69
2021/12/20 06:57:09;;;;;;;19.40;2.90;;;1.90;99.90;;;;;;5047760;28;20053;-68
2021/12/20 06:59:35;;;;;;;16.13;2.83;;;1.90;99.90;;;;;;5032865;28;253807;-67
2021/12/20 07:02:01;;;;;;;19.30;2.88;;;1.90;99.90;;;;;;5050404;28;20049;-68
2021/12/20 07:04:27;;;;;;;22.98;2.80;;;1.80;99.90;;;;;;5016037;28;86626;-68
2021/12/20 07:06:53;;;;;;;20.20;3.17;;;1.80;99.90;;;;;;5043025;28;20063;-68
2021/12/20 07:09:20;;;;;;;16.90;3.30;;;1.80;99.90;;;;;;5024839;28;236707;-68
2021/12/20 07:11:46;;;;;;;19.25;2.85;;;1.80;99.90;;;;;;5035555;28;20421;-69
2021/12/20 07:14:12;;;;;;;17.30;2.90;;;1.70;99.90;;;;;;5026265;28;264395;-68
2021/12/20 07:16:40;;;;;;;21.38;2.95;;;1.70;99.90;;;;;;5045364;28;20386;-68
2021/12/20 07:19:07;;;;;;;16.70;2.90;;;1.70;99.90;;;;;;5032029;28;266047;-68
2021/12/20 07:21:33;;;;;;;19.45;2.92;;;1.70;99.90;;;;;;5058144;28;20079;-67
2021/12/20 07:23:59;;;;;;;20.08;2.83;;;1.60;99.90;;;;;;5023462;28;243815;-69
2021/12/20 07:26:25;;;;;;;26.02;3.60;;;1.60;99.90;;;;;;5023358;28;20050;-67
2021/12/20 07:28:51;;;;;;;22.10;3.42;;;1.60;99.90;;;;;;5025406;28;266706;-68
2021/12/20 07:31:20;;;;;;;16.70;2.97;;;1.50;99.90;;;;;;5045099;28;20445;-68
2021/12/20 07:33:46;;;;;;;15.85;3.10;;;1.50;99.90;;;;;;5039631;28;20414;-69
2021/12/20 07:36:15;;;;;;;18.80;3.20;;;1.50;99.90;;;;;;5018523;28;164883;-68
2021/12/20 07:38:41;;;;;;;20.83;3.50;;;1.50;99.90;;;;;;5043905;28;20048;-69
2021/12/20 07:41:07;;;;;;;18.83;2.83;;;1.40;99.90;;;;;;5009990;28;109663;-68
2021/12/20 07:43:34;;;;;;;21.83;3.42;;;1.40;99.90;;;;;;5039351;28;20053;-68
2021/12/20 07:46:00;;;;;;;20.67;3.10;;;1.30;99.90;;;;;;5009171;28;198595;-68
2021/12/20 07:48:26;;;;;;;21.52;3.55;;;1.30;99.90;;;;;;5039506;28;20061;-68
2021/12/20 07:50:52;;;;;;;20.85;3.33;;;1.30;99.90;;;;;;5044910;28;258893;-68
2021/12/20 07:53:18;;;;;;;19.27;3.20;;;1.30;99.90;;;;;;5045308;28;20041;-67
2021/12/20 07:55:45;;;;;;;17.15;3.10;;;1.30;99.90;;;;;;5013183;28;72862;-68
2021/12/20 07:58:19;;;;;;;16.33;2.90;;;1.30;99.90;;;;;;5033404;28;20045;-68
2021/12/20 08:00:51;;;;;;;20.42;4.03;;;1.30;99.90;;;;;;5022204;28;259742;-69
2021/12/20 08:03:19;;;;;;;20.42;4.20;;;1.20;99.90;;;;;;5018798;28;20413;-68
2021/12/20 08:05:45;;;;;;;14.90;3.42;;;1.20;99.90;;;;;;5016005;28;202529;-69
2021/12/20 08:08:12;;;;;;;18.33;3.53;;;1.20;99.90;;;;;;5035744;28;20605;-68
2021/12/20 08:10:38;;;;;;;26.67;3.65;;;1.20;99.90;;;;;;5021877;28;177867;-70
2021/12/20 08:13:09;;;;;;;16.40;3.13;;;1.20;99.90;;;;;;5021156;28;20288;-69
2021/12/20 08:15:35;;;;;;;27.02;3.45;;;1.20;99.90;;;;;;5027508;28;221315;-68
2021/12/20 08:18:01;;;;;;;24.92;3.33;;;1.20;99.90;;;;;;5040788;28;20386;-68
2021/12/20 08:20:28;;;;;;;16.92;2.80;;;1.10;99.90;;;;;;5025168;28;233564;-69
2021/12/20 08:22:54;;;;;;;17.70;2.90;;;1.10;99.90;;;;;;5036307;28;20072;-68
2021/12/20 08:25:20;;;;;;;13.13;2.78;;;1.10;99.90;;;;;;5032843;28;277057;-69
2021/12/20 08:27:48;;;;;;;21.15;3.65;;;1.10;99.90;;;;;;5034590;28;20393;-69
2021/12/20 08:30:14;;;;;;;16.85;3.80;;;1.10;99.90;;;;;;5030058;28;272678;-69
2021/12/20 08:32:41;;;;;;;21.25;3.88;;;1.10;99.90;;;;;;5024190;28;20060;-68
2021/12/20 08:35:09;;;;;;;19.00;4.15;;;1.10;99.90;;;;;;5030912;28;83920;-69
2021/12/20 08:37:35;;;;;;;22.42;3.85;;;1.10;99.90;;;;;;5035367;28;20537;-69
2021/12/20 08:40:03;;;;;;;14.65;3.30;;;1.10;99.90;;;;;;5044550;28;37143;-69
2021/12/20 08:42:29;;;;;;;20.33;3.92;;;1.10;99.90;;;;;;5032673;28;20068;-69
2021/12/20 08:44:55;;;;;;;17.25;3.50;;;1.20;99.90;;;;;;5029334;28;272902;-69
2021/12/20 08:47:21;;;;;;;24.48;3.85;;;1.20;99.90;;;;;;5050045;28;20310;-68
2021/12/20 08:49:48;;;;;;;22.40;4.30;;;1.20;99.90;;;;;;4998111;28;211626;-68
2021/12/20 08:52:15;;;;;;;20.75;4.68;;;1.20;99.90;;;;;;5039784;28;20041;-68
2021/12/20 08:54:41;;;;;;;21.17;4.85;;;1.10;99.90;;;;;;5014232;28;239368;-68
2021/12/20 08:57:08;;;;;;;21.52;5.13;;;1.20;99.90;;;;;;5024331;28;20049;-67
2021/12/20 08:59:35;;;;;;;22.88;7.60;;;1.20;99.90;;;;;;5031664;28;56520;-68
2021/12/20 09:02:03;;;;;;;22.17;6.05;;;1.20;99.90;;;;;;5038448;28;20061;-68
2021/12/20 09:04:29;;;;;;;24.25;6.57;;;1.20;99.90;;;;;;5003938;28;273845;-69
2021/12/20 09:06:55;;;;;;;23.45;6.95;;;1.20;99.90;;;;;;5033418;28;20045;-69
2021/12/20 09:09:21;;;;;;;24.17;6.53;;;1.30;99.90;;;;;;5020162;28;264670;-67
2021/12/20 09:11:47;;;;;;;23.88;6.80;;;1.30;99.90;;;;;;5038855;28;20052;-68
2021/12/20 09:14:14;;;;;;;29.13;7.20;;;1.30;99.90;;;;;;5016493;28;251214;-68
2021/12/20 09:16:41;;;;;;;27.60;7.15;;;1.30;99.90;;;;;;5038738;28;20136;-69
2021/12/20 09:19:07;;;;;;;29.90;7.78;;;1.40;99.90;;;;;;5021615;28;262518;-69
2021/12/20 09:21:34;;;;;;;27.40;7.50;;;1.40;99.90;;;;;;5025750;28;20072;-69
2021/12/20 09:24:03;;;;;;;31.38;7.22;;;1.50;99.90;;;;;;5024079;28;258824;-70
2021/12/20 09:26:29;;;;;;;32.60;8.10;;;1.50;99.90;;;;;;5041220;28;20049;-67
2021/12/20 09:28:56;;;;;;;28.40;7.85;;;1.50;99.90;;;;;;5021577;28;259020;-69
2021/12/20 09:31:22;;;;;;;30.98;7.80;;;1.60;99.90;;;;;;5038319;28;20517;-67
2021/12/20 09:33:48;;;;;;;27.10;7.10;;;1.60;99.90;;;;;;5042340;28;20043;-67
2021/12/20 09:36:14;;;;;;;32.42;7.68;;;1.70;99.90;;;;;;5025139;22;167627;-72
2021/12/20 09:38:40;;;;;;;36.50;8.32;;;1.70;99.90;;;;;;5024251;28;20056;-71
2021/12/20 09:43:44;;;;;;;37.40;8.40;;;1.80;99.90;;;;;;5003039;28;20053;-72
2021/12/20 09:46:10;;;;;;;38.10;8.13;;;1.80;99.90;;;;;;5008869;28;77817;-72
2021/12/20 09:48:36;;;;;;;31.95;7.57;;;1.80;99.90;;;;;;5021587;28;20037;-73
2021/12/20 09:51:04;;;;;;;31.00;7.65;;;1.90;99.90;;;;;;5017375;28;266415;-73
2021/12/20 09:53:31;;;;;;;36.33;8.45;;;1.90;99.90;;;;;;5030295;28;20540;-73
2021/12/20 09:55:59;;;;;;;31.05;6.60;;;1.90;99.90;;;;;;5004216;28;220782;-73
2021/12/20 09:58:26;;;;;;;32.92;7.65;;;2.00;99.90;;;;;;5006985;28;20045;-72
2021/12/20 10:00:53;;;;;;;34.80;7.07;;;2.00;99.90;;;;;;5015492;28;258235;-73
2021/12/20 10:03:23;;;;;;;42.72;7.85;;;2.00;99.90;;;;;;5020153;28;20045;-72
2021/12/20 10:05:54;;;;;;;51.10;8.95;;;2.10;99.90;;;;;;4962835;28;162188;-72
2021/12/20 10:08:26;;;;;;;35.33;7.35;;;2.20;99.90;;;;;;5022808;28;20041;-72
2021/12/20 10:10:53;;;;;;;39.08;6.72;;;2.20;99.90;;;;;;5004501;28;263161;-73
2021/12/20 10:13:33;;;;;;;35.10;6.32;;;2.30;99.90;;;;;;5026257;28;20422;-72
2021/12/20 10:16:03;;;;;;;32.90;6.45;;;2.30;99.90;;;;;;4990528;28;129016;-72
2021/12/20 10:18:33;;;;;;;39.95;7.25;;;2.30;99.90;;;;;;5006926;28;20513;-72
2021/12/20 10:21:03;;;;;;;44.97;6.47;;;2.30;99.90;;;;;;4995350;28;102220;-72
2021/12/20 10:23:33;;;;;;;38.10;6.90;;;2.40;99.90;;;;;;5017338;28;20057;-72
2021/12/20 10:26:04;;;;;;;48.15;7.00;;;2.40;99.90;;;;;;5009435;28;135120;-72
2021/12/20 10:28:36;;;;;;;38.13;6.97;;;2.50;99.90;;;;;;5006015;28;20072;-72
2021/12/20 10:31:07;;;;;;;37.92;6.95;;;2.50;99.90;;;;;;5002200;28;223770;-72
2021/12/20 10:33:34;;;;;;;;;;;2.50;99.90;;;;;;5004609;28;20057;-72
2021/12/20 10:36:03;;;;;;;40.17;4.80;;;2.60;99.90;;;;;;5009998;28;133870;-72
2021/12/20 10:38:37;;;;;;;43.10;5.88;;;2.70;99.90;;;;;;5023038;28;20065;-71
2021/12/20 10:41:20;;;;;;;44.70;5.72;;;2.70;99.90;;;;;;5011657;28;169535;-71
2021/12/20 10:44:01;;;;;;;46.75;5.93;;;2.80;99.90;;;;;;5005637;28;20655;-72
2021/12/20 10:46:35;;;;;;;41.40;5.50;;;2.80;99.90;;;;;;5014506;28;20072;-72
2021/12/20 10:49:08;;;;;;;53.17;5.53;;;2.90;99.90;;;;;;5003184;28;236325;-72
2021/12/20 10:51:34;;;;;;;43.28;5.47;;;2.90;99.90;;;;;;5016016;28;20053;-71
2021/12/20 10:54:07;;;;;;;48.17;5.83;;;3.00;99.90;;;;;;4989314;28;260280;-73
2021/12/20 10:56:35;;;;;;;34.00;5.07;;;3.00;99.90;;;;;;5002946;28;20057;-73
2021/12/20 10:59:07;;;;;;;41.50;5.93;;;3.10;99.90;;;;;;4989846;28;266024;-73
2021/12/20 11:04:19;;;;;;;39.22;5.75;;;3.30;99.90;;;;;;4967293;28;273997;-73
2021/12/20 11:09:17;;;;;;;31.98;5.85;;;3.40;99.90;;;;;;4999572;28;266530;-74
2021/12/20 11:11:56;;;;;;;42.65;5.68;;;3.40;99.90;;;;;;5032586;28;20514;-73
2021/12/20 11:14:28;;;;;;;31.83;5.78;;;3.50;99.90;;;;;;5003219;28;276948;-72
2021/12/20 11:16:57;;;;;;;31.08;4.90;;;3.50;99.90;;;;;;5017485;28;20052;-72
2021/12/20 11:19:24;;;;;;;32.53;5.22;;;3.60;99.90;;;;;;4995047;28;62682;-73
2021/12/20 11:22:19;;;;;;;26.85;4.05;;;3.60;99.90;;;;;;4991707;28;20053;-72
2021/12/20 11:24:53;;;;;;;30.58;4.43;;;3.70;99.90;;;;;;4995578;28;166581;-72
2021/12/20 11:27:46;;;;;;;24.33;3.00;;;3.70;99.90;;;;;;5011877;28;20125;-73
2021/12/20 11:30:10;;;;;;;;;;;3.70;99.90;;;;;;5001945;28;66754;-72
2021/12/20 11:32:37;;;;;;;20.70;2.72;;;3.70;99.90;;;;;;5014345;28;19928;-72
2021/12/20 11:35:04;;;;;;;20.65;2.75;;;3.70;99.90;;;;;;4997671;28;238289;-72
2021/12/20 11:37:30;;;;;;;17.63;2.35;;;3.80;99.90;;;;;;5026798;28;20053;-72
2021/12/20 11:39:59;;;;;;;24.05;3.13;;;3.80;99.90;;;;;;5003672;28;151452;-73
2021/12/20 11:42:26;;;;;;;23.55;2.70;;;3.80;99.90;;;;;;4999946;28;20069;-72
2021/12/20 11:44:58;;;;;;;20.70;2.70;;;3.80;99.90;;;;;;5008187;28;231495;-73
2021/12/20 11:47:52;;;;;;;16.60;2.45;;;3.80;99.90;;;;;;4990259;28;20049;-72
2021/12/20 11:50:29;;;;;;;16.65;2.60;;;3.90;99.90;;;;;;5004257;28;263748;-72
2021/12/20 11:53:10;;;;;;;19.13;3.22;;;3.90;99.90;;;;;;5006468;28;20057;-73
2021/12/20 11:55:43;;;;;;;20.00;3.10;;;3.90;99.90;;;;;;5006365;28;121498;-72
2021/12/20 11:58:17;;;;;;;16.67;2.15;;;3.90;99.90;;;;;;5013615;28;20064;-72
2021/12/20 12:00:51;;;;;;;14.98;2.17;;;4.00;99.90;;;;;;4991518;28;138141;-72
2021/12/20 12:03:24;;;;;;;11.82;2.05;;;4.10;99.90;;;;;;5026341;28;20053;-73
2021/12/20 12:05:58;;;;;;;13.00;1.92;;;4.10;99.90;;;;;;4996483;28;154691;-72
2021/12/20 12:08:36;;;;;;;11.63;1.70;;;4.10;99.90;;;;;;5013202;28;20057;-72
2021/12/20 12:11:08;;;;;;;11.05;1.55;;;4.10;99.90;;;;;;5002040;28;138113;-73
2021/12/20 12:13:57;;;;;;;9.70;1.35;;;4.10;99.90;;;;;;5007879;28;20053;-73
2021/12/20 12:16:28;;;;;;;11.20;1.63;;;4.80;99.90;;;;;;4981813;28;20375;-73
2021/12/20 12:18:59;;;;;;;13.20;2.22;;;7.00;99.90;;;;;;4986806;28;272904;-73
2021/12/20 12:21:32;;;;;;;11.63;1.52;;;8.90;99.90;;;;;;5037916;28;20076;-74
2021/12/20 12:23:59;;;;;;;12.43;1.60;;;10.70;99.90;;;;;;4988212;28;271574;-73
2021/12/20 12:26:47;;;;;;;12.80;1.70;;;12.00;99.90;;;;;;5022738;28;20056;-74
2021/12/20 12:29:25;;;;;;;14.93;1.73;;;13.50;99.90;;;;;;5021241;28;269981;-74
2021/12/20 12:32:00;;;;;;;10.00;1.60;;;14.70;99.90;;;;;;5037046;28;20045;-74
2021/12/20 12:34:43;;;;;;;9.05;1.40;;;15.60;99.90;;;;;;5009324;28;268734;-74
2021/12/20 12:37:38;;;;;;;10.60;1.40;;;16.40;97.20;;;;;;5033458;28;20490;-72
2021/12/20 12:40:23;;;;;;;9.95;1.27;;;17.10;96.40;;;;;;5017690;28;261122;-72
2021/12/20 12:42:55;;;;;;;10.07;1.60;;;17.70;94.20;;;;;;5014655;28;20053;-72
2021/12/20 12:45:50;;;;;;;8.60;1.42;;;18.20;92.40;;;;;;5002475;28;231203;-71
2021/12/20 12:48:35;;;;;;;6.55;1.15;;;18.60;90.70;;;;;;4991157;28;20049;-72
2021/12/20 12:51:07;;;;;;;6.93;1.05;;;19.20;88.30;;;;;;5000945;28;265115;-72
2021/12/20 12:53:48;;;;;;;7.72;1.13;;;19.60;88.60;;;;;;5005192;28;20057;-72
2021/12/20 12:56:23;;;;;;;6.85;1.10;;;20.00;85.60;;;;;;5019590;28;270446;-73
2021/12/20 12:59:20;;;;;;;6.90;1.00;;;20.20;83.40;;;;;;5007018;28;20045;-73
2021/12/20 13:02:10;;;;;;;5.50;1.08;;;20.60;77.70;;;;;;4982567;28;20045;-73
2021/12/20 13:04:45;;;;;;;4.63;0.80;;;20.70;73.30;;;;;;4982926;28;130092;-73
2021/12/20 13:07:22;;;;;;;7.28;1.02;;;21.00;76.20;;;;;;5027573;28;20434;-73
2021/12/20 13:09:50;;;;;;;6.90;1.17;;;21.20;73.30;;;;;;4981128;28;236107;-73
2021/12/20 13:15:15;;;;;;;6.72;0.90;;;21.60;70.30;;;;;;5006201;28;25142;-73
2021/12/20 13:17:44;;;;;;;7.03;1.23;;;21.80;68.70;;;;;;5012480;28;20057;-73
2021/12/20 13:20:32;;;;;;;8.50;1.10;;;21.80;67.40;;;;;;4989343;28;189100;-76